• Join FlightAware (Why Join?)
  • Login
  • US Flag 
05:35PM EST


 

Airport Tracker/Info


-or-


 

Live Flight TrackerFlight Track Log ✈ SWA1621 ✈ 28-Jul-2014 ✈ KLAX - KSJC

Flight Track Log - Related Links

Times and Time Zones

All times are in EDT time to prevent confusion due to time zone crossing. See the SWA1621 flight status page for this flight to view local times or setup timezone preferences in your user account.

Time Position Orientation Groundspeed Altitude Reporting Facility
EDT Latitude Longitude Course Direction KTS MPH feet Rate Location/Type
02:35PM 33.9500 -118.4500 254° West 177 204 1,000  Level Southern California TRACON
02:35PM 33.9394 -118.4956 254° West 205 236 1,900 1,800 Climbing Los Angeles Center
02:36PM 33.9300 -118.5775 262° West 242 278 4,100 2,220 Climbing Los Angeles Center
02:37PM 33.9214 -118.6697 264° West 256 295 6,600 2,520 Climbing Los Angeles Center
02:38PM 33.9117 -118.7667 263° West 292 336 9,400 2,520 Climbing Los Angeles Center
02:40PM 33.9025 -118.8611 263° West 293 337 11,900 2,040 Climbing Los Angeles Center
02:41PM 33.9269 -118.9597 287° West 326 375 13,700 1,980 Climbing Los Angeles Center
02:42PM 33.9894 -119.0442 312° West 335 386 16,100 2,220 Climbing Los Angeles Center
02:43PM 34.0683 -119.1542 311° West 360 414 18,300 1,920 Climbing Los Angeles Center
02:44PM 34.1372 -119.2506 311° West 376 433 20,100 1,800 Climbing Los Angeles Center
02:45PM 34.2075 -119.3481 311° West 384 442 22,100 1,740 Climbing Los Angeles Center
02:46PM 34.2786 -119.4506 310° West 395 455 23,800 1,560 Climbing Los Angeles Center
02:47PM 34.3536 -119.5553 311° West 408 470 25,400 1,620 Climbing Los Angeles Center
02:48PM 34.4292 -119.6619 311° West 417 480 27,200 1,620 Climbing Los Angeles Center
02:49PM 34.5253 -119.7886 313° West 426 490 28,800 1,200 Climbing Los Angeles Center
02:50PM 34.6208 -119.8642 327° Northwest 438 504 29,700 1,140 Climbing Los Angeles Center
02:51PM 34.7247 -119.9497 326° Northwest 449 517 31,200 1,680 Climbing Los Angeles Center
02:52PM 34.8467 -120.0503 326° Northwest 442 509 33,300 1,440 Climbing Los Angeles Center
02:53PM 34.9378 -120.1256 326° Northwest 440 506 34,200 780 Climbing Los Angeles Center
02:54PM 35.0392 -120.2108 325° Northwest 442 509 35,000 840 Climbing Los Angeles Center
02:55PM 35.1633 -120.3133 326° Northwest 449 517 36,000 480 Climbing Los Angeles Center
02:56PM 35.2664 -120.4008 325° Northwest 451 519 36,000  Level Los Angeles Center
02:57PM 35.3703 -120.4928 324° Northwest 462 532 36,000  Level Los Angeles Center
02:58PM 35.4783 -120.5811 326° Northwest 467 537 36,000  Level Los Angeles Center
02:59PM 35.5833 -120.6694 326° Northwest 466 536 36,000  Level Los Angeles Center
03:00PM 35.6467 -120.7247 325° Northwest 460 529 36,000 -240 Level Oakland Center
03:01PM 35.7519 -120.8144 325° Northwest 460 529 35,700 -840 Descending Oakland Center
03:02PM 35.8586 -120.9042 326° Northwest 462 532 34,400 -2,160 Descending Oakland Center
03:03PM 35.9661 -120.9956 325° Northwest 466 536 31,300 -2,940 Descending Oakland Center
03:04PM 36.0914 -121.1028 325° Northwest 462 532 28,400 -2,520 Descending Oakland Center
03:05PM 36.1911 -121.1875 326° Northwest 439 505 26,200 -2,160 Descending Oakland Center
03:06PM 36.2864 -121.2722 324° Northwest 425 489 24,000 -2,340 Descending Oakland Center
03:07PM 36.3822 -121.3408 330° Northwest 404 465 21,500 -2,640 Descending Oakland Center
03:08PM 36.4869 -121.3872 340° North 399 459 18,700 -2,460 Descending Oakland Center
03:09PM 36.5897 -121.4353 339° North 396 456 16,500 -2,340 Descending Oakland Center
03:10PM 36.6875 -121.4844 338° Northwest 384 442 14,000 -2,460 Descending Oakland Center
03:11PM 36.7842 -121.5275 340° North 373 429 11,500 -2,040 Descending Oakland Center
03:12PM 36.8792 -121.5783 337° Northwest 353 406 9,900 -1,260 Descending Oakland Center
03:13PM 36.9586 -121.6156 339° North 312 359 8,900 -1,380 Descending Oakland Center
03:14PM 37.0486 -121.6619 338° Northwest 295 339 7,100 -1,500 Descending Oakland Center
03:15PM 37.1131 -121.6911 340° North 289 333 5,900 -1,080 Descending Oakland Center
03:16PM 37.1894 -121.7389 334° Northwest 274 315 4,900 -960 Descending Oakland Center
03:17PM 37.2347 -121.7917 317° Northwest 237 273 4,000 -1,200 Descending Oakland Center
03:18PM 37.2794 -121.8381 320° Northwest 220 253 2,500 -1,320 Descending Oakland Center
03:19PM 37.3175 -121.8792 319° Northwest 198 228 1,300 -1,200 Descending Oakland Center
03:20PM 37.3528 -121.9197 318° Northwest 163 188 100 -1,200 Descending Oakland Center
03:22PM 37.3500 -121.9167 North  Level FlightAware Approximate
03:29PM 37.3627 -121.9291 North  Level Estimated